sensor_id;sensor_type;location;lat;lon;timestamp;P1;durP1;ratioP1;P2;durP2;ratioP2
65567;SDS011;52211;50.154;8.682;2023-06-04T00:01:08;1.47;;;1.37;;
65567;SDS011;52211;50.154;8.682;2023-06-04T00:03:42;1.70;;;1.50;;
65567;SDS011;52211;50.154;8.682;2023-06-04T00:06:14;1.00;;;1.00;;
65567;SDS011;52211;50.154;8.682;2023-06-04T00:08:43;1.97;;;1.30;;
65567;SDS011;52211;50.154;8.682;2023-06-04T00:11:12;1.77;;;1.50;;
65567;SDS011;52211;50.154;8.682;2023-06-04T00:13:46;1.40;;;1.30;;
65567;SDS011;52211;50.154;8.682;2023-06-04T00:16:13;1.70;;;1.40;;
65567;SDS011;52211;50.154;8.682;2023-06-04T00:18:44;1.53;;;1.43;;
65567;SDS011;52211;50.154;8.682;2023-06-04T00:21:11;1.90;;;1.60;;
65567;SDS011;52211;50.154;8.682;2023-06-04T00:23:40;1.80;;;1.70;;
65567;SDS011;52211;50.154;8.682;2023-06-04T00:26:12;1.50;;;1.40;;
65567;SDS011;52211;50.154;8.682;2023-06-04T00:28:46;2.63;;;1.47;;
65567;SDS011;52211;50.154;8.682;2023-06-04T00:31:15;1.60;;;1.50;;
65567;SDS011;52211;50.154;8.682;2023-06-04T00:33:43;1.30;;;1.20;;
65567;SDS011;52211;50.154;8.682;2023-06-04T00:36:09;1.43;;;1.33;;
65567;SDS011;52211;50.154;8.682;2023-06-04T00:38:36;1.57;;;1.40;;
65567;SDS011;52211;50.154;8.682;2023-06-04T00:41:09;1.70;;;1.47;;
65567;SDS011;52211;50.154;8.682;2023-06-04T00:43:36;2.00;;;1.80;;
65567;SDS011;52211;50.154;8.682;2023-06-04T00:46:03;2.27;;;1.97;;
65567;SDS011;52211;50.154;8.682;2023-06-04T00:48:34;1.67;;;1.57;;
65567;SDS011;52211;50.154;8.682;2023-06-04T00:51:03;2.00;;;1.40;;
65567;SDS011;52211;50.154;8.682;2023-06-04T00:53:32;3.73;;;1.53;;
65567;SDS011;52211;50.154;8.682;2023-06-04T00:56:02;1.53;;;1.30;;
65567;SDS011;52211;50.154;8.682;2023-06-04T00:58:34;1.00;;;1.00;;
65567;SDS011;52211;50.154;8.682;2023-06-04T01:01:07;1.70;;;1.30;;
65567;SDS011;52211;50.154;8.682;2023-06-04T01:03:47;1.40;;;1.10;;
65567;SDS011;52211;50.154;8.682;2023-06-04T01:06:24;1.63;;;1.50;;
65567;SDS011;52211;50.154;8.682;2023-06-04T01:09:07;1.67;;;1.40;;
65567;SDS011;52211;50.154;8.682;2023-06-04T01:11:39;1.50;;;1.40;;
65567;SDS011;52211;50.154;8.682;2023-06-04T01:14:08;1.60;;;1.50;;
65567;SDS011;52211;50.154;8.682;2023-06-04T01:16:42;1.90;;;1.63;;
65567;SDS011;52211;50.154;8.682;2023-06-04T01:19:22;1.50;;;1.37;;
65567;SDS011;52211;50.154;8.682;2023-06-04T01:22:33;2.23;;;1.30;;
65567;SDS011;52211;50.154;8.682;2023-06-04T01:28:01;1.37;;;1.27;;
65567;SDS011;52211;50.154;8.682;2023-06-04T01:30:32;1.80;;;1.70;;
65567;SDS011;52211;50.154;8.682;2023-06-04T01:33:10;1.67;;;1.57;;
65567;SDS011;52211;50.154;8.682;2023-06-04T01:35:43;1.97;;;1.47;;
65567;SDS011;52211;50.154;8.682;2023-06-04T01:38:11;2.20;;;1.63;;
65567;SDS011;52211;50.154;8.682;2023-06-04T01:40:40;1.57;;;1.30;;
65567;SDS011;52211;50.154;8.682;2023-06-04T01:43:12;1.50;;;1.33;;
65567;SDS011;52211;50.154;8.682;2023-06-04T01:45:42;3.50;;;1.83;;
65567;SDS011;52211;50.154;8.682;2023-06-04T01:48:09;2.50;;;1.33;;
65567;SDS011;52211;50.154;8.682;2023-06-04T01:50:41;2.50;;;1.60;;
65567;SDS011;52211;50.154;8.682;2023-06-04T01:53:08;1.70;;;1.60;;
65567;SDS011;52211;50.154;8.682;2023-06-04T01:55:39;1.60;;;1.50;;
65567;SDS011;52211;50.154;8.682;2023-06-04T01:58:11;2.00;;;1.90;;
65567;SDS011;52211;50.154;8.682;2023-06-04T02:00:41;1.30;;;1.30;;
65567;SDS011;52211;50.154;8.682;2023-06-04T02:03:10;2.10;;;1.90;;
65567;SDS011;52211;50.154;8.682;2023-06-04T02:05:41;2.10;;;1.20;;
65567;SDS011;52211;50.154;8.682;2023-06-04T02:08:14;2.40;;;1.30;;
65567;SDS011;52211;50.154;8.682;2023-06-04T02:10:46;1.97;;;1.50;;
65567;SDS011;52211;50.154;8.682;2023-06-04T02:13:14;1.40;;;1.30;;
65567;SDS011;52211;50.154;8.682;2023-06-04T02:15:43;2.90;;;1.70;;
65567;SDS011;52211;50.154;8.682;2023-06-04T02:20:47;1.90;;;1.50;;
65567;SDS011;52211;50.154;8.682;2023-06-04T02:23:18;1.60;;;1.50;;
65567;SDS011;52211;50.154;8.682;2023-06-04T02:25:46;1.63;;;1.53;;
65567;SDS011;52211;50.154;8.682;2023-06-04T02:28:18;1.67;;;1.30;;
65567;SDS011;52211;50.154;8.682;2023-06-04T02:30:47;1.30;;;1.30;;
65567;SDS011;52211;50.154;8.682;2023-06-04T02:33:17;1.77;;;1.50;;
65567;SDS011;52211;50.154;8.682;2023-06-04T02:35:46;1.57;;;1.47;;
65567;SDS011;52211;50.154;8.682;2023-06-04T02:38:13;2.50;;;1.30;;
65567;SDS011;52211;50.154;8.682;2023-06-04T02:40:41;1.47;;;1.37;;
65567;SDS011;52211;50.154;8.682;2023-06-04T02:43:14;1.50;;;1.40;;
65567;SDS011;52211;50.154;8.682;2023-06-04T02:45:50;1.73;;;1.40;;
65567;SDS011;52211;50.154;8.682;2023-06-04T02:48:17;1.87;;;1.67;;
65567;SDS011;52211;50.154;8.682;2023-06-04T02:50:44;1.63;;;1.53;;
65567;SDS011;52211;50.154;8.682;2023-06-04T02:53:13;2.47;;;1.30;;
65567;SDS011;52211;50.154;8.682;2023-06-04T02:55:44;3.33;;;1.70;;
65567;SDS011;52211;50.154;8.682;2023-06-04T02:58:11;1.60;;;1.50;;
65567;SDS011;52211;50.154;8.682;2023-06-04T03:00:44;2.57;;;2.10;;
65567;SDS011;52211;50.154;8.682;2023-06-04T03:03:11;4.47;;;1.40;;
65567;SDS011;52211;50.154;8.682;2023-06-04T03:05:38;1.70;;;1.60;;
65567;SDS011;52211;50.154;8.682;2023-06-04T03:08:11;2.00;;;1.80;;
65567;SDS011;52211;50.154;8.682;2023-06-04T03:10:41;3.23;;;2.53;;
65567;SDS011;52211;50.154;8.682;2023-06-04T03:13:09;2.17;;;1.97;;
65567;SDS011;52211;50.154;8.682;2023-06-04T03:15:41;3.70;;;2.30;;
65567;SDS011;52211;50.154;8.682;2023-06-04T03:18:08;2.70;;;2.50;;
65567;SDS011;52211;50.154;8.682;2023-06-04T03:20:40;3.17;;;2.20;;
65567;SDS011;52211;50.154;8.682;2023-06-04T03:23:08;2.87;;;2.03;;
65567;SDS011;52211;50.154;8.682;2023-06-04T03:25:38;3.10;;;2.80;;
65567;SDS011;52211;50.154;8.682;2023-06-04T03:28:08;4.90;;;2.20;;
65567;SDS011;52211;50.154;8.682;2023-06-04T03:30:43;3.37;;;2.50;;
65567;SDS011;52211;50.154;8.682;2023-06-04T03:33:10;4.80;;;2.40;;
65567;SDS011;52211;50.154;8.682;2023-06-04T03:35:39;3.03;;;2.47;;
65567;SDS011;52211;50.154;8.682;2023-06-04T03:38:09;3.00;;;2.53;;
65567;SDS011;52211;50.154;8.682;2023-06-04T03:40:40;4.20;;;2.37;;
65567;SDS011;52211;50.154;8.682;2023-06-04T03:43:10;3.10;;;2.73;;
65567;SDS011;52211;50.154;8.682;2023-06-04T03:45:38;2.37;;;2.17;;
65567;SDS011;52211;50.154;8.682;2023-06-04T03:48:10;2.43;;;2.23;;
65567;SDS011;52211;50.154;8.682;2023-06-04T03:50:41;2.40;;;2.20;;
65567;SDS011;52211;50.154;8.682;2023-06-04T03:53:09;2.87;;;2.27;;
65567;SDS011;52211;50.154;8.682;2023-06-04T03:55:41;2.57;;;2.20;;
65567;SDS011;52211;50.154;8.682;2023-06-04T03:58:08;4.07;;;2.20;;
65567;SDS011;52211;50.154;8.682;2023-06-04T04:00:43;2.00;;;1.90;;
65567;SDS011;52211;50.154;8.682;2023-06-04T04:03:11;2.13;;;2.00;;
65567;SDS011;52211;50.154;8.682;2023-06-04T04:05:40;2.23;;;2.03;;
65567;SDS011;52211;50.154;8.682;2023-06-04T04:08:09;2.40;;;2.00;;
65567;SDS011;52211;50.154;8.682;2023-06-04T04:10:36;2.47;;;2.27;;
65567;SDS011;52211;50.154;8.682;2023-06-04T04:13:08;1.77;;;1.67;;
65567;SDS011;52211;50.154;8.682;2023-06-04T04:15:41;1.67;;;1.57;;
65567;SDS011;52211;50.154;8.682;2023-06-04T04:18:10;3.13;;;1.93;;
65567;SDS011;52211;50.154;8.682;2023-06-04T04:20:41;1.53;;;1.40;;
65567;SDS011;52211;50.154;8.682;2023-06-04T04:23:12;2.70;;;1.93;;
65567;SDS011;52211;50.154;8.682;2023-06-04T04:25:46;1.87;;;1.60;;
65567;SDS011;52211;50.154;8.682;2023-06-04T04:28:15;2.50;;;2.17;;
65567;SDS011;52211;50.154;8.682;2023-06-04T04:30:46;1.67;;;1.40;;
65567;SDS011;52211;50.154;8.682;2023-06-04T04:33:15;1.50;;;1.40;;
65567;SDS011;52211;50.154;8.682;2023-06-04T04:35:46;2.13;;;1.93;;
65567;SDS011;52211;50.154;8.682;2023-06-04T04:38:16;1.50;;;1.40;;
65567;SDS011;52211;50.154;8.682;2023-06-04T04:40:50;1.97;;;1.60;;
65567;SDS011;52211;50.154;8.682;2023-06-04T04:43:31;1.80;;;1.70;;
65567;SDS011;52211;50.154;8.682;2023-06-04T04:46:12;2.13;;;1.93;;
65567;SDS011;52211;50.154;8.682;2023-06-04T04:48:42;1.60;;;1.50;;
65567;SDS011;52211;50.154;8.682;2023-06-04T04:51:09;3.23;;;1.67;;
65567;SDS011;52211;50.154;8.682;2023-06-04T04:53:38;1.93;;;1.77;;
65567;SDS011;52211;50.154;8.682;2023-06-04T04:56:07;1.50;;;1.40;;
65567;SDS011;52211;50.154;8.682;2023-06-04T04:58:43;2.40;;;1.40;;
65567;SDS011;52211;50.154;8.682;2023-06-04T05:01:10;1.40;;;1.20;;
65567;SDS011;52211;50.154;8.682;2023-06-04T05:03:43;1.50;;;1.40;;
65567;SDS011;52211;50.154;8.682;2023-06-04T05:06:12;2.10;;;1.50;;
65567;SDS011;52211;50.154;8.682;2023-06-04T05:08:47;2.57;;;1.50;;
65567;SDS011;52211;50.154;8.682;2023-06-04T05:11:20;2.10;;;1.60;;
65567;SDS011;52211;50.154;8.682;2023-06-04T05:13:52;2.33;;;1.80;;
65567;SDS011;52211;50.154;8.682;2023-06-04T05:16:19;1.80;;;1.70;;
65567;SDS011;52211;50.154;8.682;2023-06-04T05:18:47;1.83;;;1.50;;
65567;SDS011;52211;50.154;8.682;2023-06-04T05:21:18;1.83;;;1.73;;
65567;SDS011;52211;50.154;8.682;2023-06-04T05:23:54;1.67;;;1.57;;
65567;SDS011;52211;50.154;8.682;2023-06-04T05:26:28;1.67;;;1.57;;
65567;SDS011;52211;50.154;8.682;2023-06-04T05:29:00;1.47;;;1.37;;
65567;SDS011;52211;50.154;8.682;2023-06-04T05:31:32;1.93;;;1.83;;
65567;SDS011;52211;50.154;8.682;2023-06-04T05:34:00;2.07;;;1.50;;
65567;SDS011;52211;50.154;8.682;2023-06-04T05:36:35;2.97;;;1.80;;
65567;SDS011;52211;50.154;8.682;2023-06-04T05:39:06;2.47;;;1.67;;
65567;SDS011;52211;50.154;8.682;2023-06-04T05:41:46;1.53;;;1.40;;
65567;SDS011;52211;50.154;8.682;2023-06-04T05:44:17;1.60;;;1.50;;
65567;SDS011;52211;50.154;8.682;2023-06-04T05:46:46;1.80;;;1.70;;
65567;SDS011;52211;50.154;8.682;2023-06-04T05:49:13;1.60;;;1.50;;
65567;SDS011;52211;50.154;8.682;2023-06-04T05:51:41;1.97;;;1.77;;
65567;SDS011;52211;50.154;8.682;2023-06-04T05:54:08;2.33;;;1.60;;
65567;SDS011;52211;50.154;8.682;2023-06-04T05:56:41;2.00;;;1.57;;
65567;SDS011;52211;50.154;8.682;2023-06-04T05:59:08;3.33;;;1.93;;
65567;SDS011;52211;50.154;8.682;2023-06-04T06:01:35;1.60;;;1.50;;
65567;SDS011;52211;50.154;8.682;2023-06-04T06:04:04;2.00;;;1.47;;
65567;SDS011;52211;50.154;8.682;2023-06-04T06:06:34;2.53;;;1.50;;
65567;SDS011;52211;50.154;8.682;2023-06-04T06:09:01;1.70;;;1.60;;
65567;SDS011;52211;50.154;8.682;2023-06-04T06:11:32;5.50;;;2.10;;
65567;SDS011;52211;50.154;8.682;2023-06-04T06:14:05;2.27;;;1.70;;
65567;SDS011;52211;50.154;8.682;2023-06-04T06:16:32;1.47;;;1.37;;
65567;SDS011;52211;50.154;8.682;2023-06-04T06:19:00;1.50;;;1.40;;
65567;SDS011;52211;50.154;8.682;2023-06-04T06:21:27;1.33;;;1.23;;
65567;SDS011;52211;50.154;8.682;2023-06-04T06:23:55;1.60;;;1.50;;
65567;SDS011;52211;50.154;8.682;2023-06-04T06:26:24;1.47;;;1.37;;
65567;SDS011;52211;50.154;8.682;2023-06-04T06:28:56;2.10;;;1.40;;
65567;SDS011;52211;50.154;8.682;2023-06-04T06:31:23;1.40;;;1.30;;
65567;SDS011;52211;50.154;8.682;2023-06-04T06:33:53;1.87;;;1.37;;
65567;SDS011;52211;50.154;8.682;2023-06-04T06:36:27;1.77;;;1.63;;
65567;SDS011;52211;50.154;8.682;2023-06-04T06:38:59;1.60;;;1.50;;
65567;SDS011;52211;50.154;8.682;2023-06-04T06:41:28;5.20;;;2.07;;
65567;SDS011;52211;50.154;8.682;2023-06-04T06:43:57;2.20;;;1.50;;
65567;SDS011;52211;50.154;8.682;2023-06-04T06:46:24;2.27;;;1.40;;
65567;SDS011;52211;50.154;8.682;2023-06-04T06:48:55;2.23;;;1.53;;
65567;SDS011;52211;50.154;8.682;2023-06-04T06:51:28;2.13;;;1.60;;
65567;SDS011;52211;50.154;8.682;2023-06-04T06:53:55;1.83;;;1.50;;
65567;SDS011;52211;50.154;8.682;2023-06-04T06:56:24;1.40;;;1.30;;
65567;SDS011;52211;50.154;8.682;2023-06-04T06:58:52;1.20;;;1.10;;
65567;SDS011;52211;50.154;8.682;2023-06-04T07:01:19;1.50;;;1.40;;
65567;SDS011;52211;50.154;8.682;2023-06-04T07:03:48;1.77;;;1.47;;
65567;SDS011;52211;50.154;8.682;2023-06-04T07:06:15;1.20;;;1.20;;
65567;SDS011;52211;50.154;8.682;2023-06-04T07:08:42;1.30;;;1.30;;
65567;SDS011;52211;50.154;8.682;2023-06-04T07:11:09;1.77;;;1.67;;
65567;SDS011;52211;50.154;8.682;2023-06-04T07:13:39;1.40;;;1.30;;
65567;SDS011;52211;50.154;8.682;2023-06-04T07:16:06;1.50;;;1.40;;
65567;SDS011;52211;50.154;8.682;2023-06-04T07:18:35;1.37;;;1.27;;
65567;SDS011;52211;50.154;8.682;2023-06-04T07:21:10;1.60;;;1.47;;
65567;SDS011;52211;50.154;8.682;2023-06-04T07:23:39;1.37;;;1.27;;
65567;SDS011;52211;50.154;8.682;2023-06-04T07:26:13;1.90;;;1.10;;
65567;SDS011;52211;50.154;8.682;2023-06-04T07:28:42;1.30;;;1.20;;
65567;SDS011;52211;50.154;8.682;2023-06-04T07:31:14;1.40;;;1.30;;
65567;SDS011;52211;50.154;8.682;2023-06-04T07:33:45;3.33;;;1.27;;
65567;SDS011;52211;50.154;8.682;2023-06-04T07:36:15;2.00;;;1.30;;
65567;SDS011;52211;50.154;8.682;2023-06-04T07:38:45;1.93;;;1.47;;
65567;SDS011;52211;50.154;8.682;2023-06-04T07:41:14;1.00;;;1.00;;
65567;SDS011;52211;50.154;8.682;2023-06-04T07:43:42;2.33;;;1.23;;
65567;SDS011;52211;50.154;8.682;2023-06-04T07:46:11;1.57;;;1.17;;
65567;SDS011;52211;50.154;8.682;2023-06-04T07:48:47;1.23;;;1.13;;
65567;SDS011;52211;50.154;8.682;2023-06-04T07:51:16;1.00;;;1.00;;
65567;SDS011;52211;50.154;8.682;2023-06-04T07:53:48;1.87;;;1.37;;
65567;SDS011;52211;50.154;8.682;2023-06-04T07:56:17;1.17;;;1.17;;
65567;SDS011;52211;50.154;8.682;2023-06-04T07:58:46;1.37;;;1.23;;
65567;SDS011;52211;50.154;8.682;2023-06-04T08:01:13;2.13;;;1.47;;
65567;SDS011;52211;50.154;8.682;2023-06-04T08:03:42;1.10;;;1.10;;
65567;SDS011;52211;50.154;8.682;2023-06-04T08:06:11;1.83;;;1.40;;
65567;SDS011;52211;50.154;8.682;2023-06-04T08:08:46;3.17;;;1.40;;
65567;SDS011;52211;50.154;8.682;2023-06-04T08:11:15;1.30;;;1.20;;
65567;SDS011;52211;50.154;8.682;2023-06-04T08:13:47;1.30;;;1.20;;
65567;SDS011;52211;50.154;8.682;2023-06-04T08:16:13;1.67;;;1.20;;
65567;SDS011;52211;50.154;8.682;2023-06-04T08:18:41;1.43;;;1.33;;
65567;SDS011;52211;50.154;8.682;2023-06-04T08:21:10;1.63;;;1.53;;
65567;SDS011;52211;50.154;8.682;2023-06-04T08:23:48;1.50;;;1.40;;
65567;SDS011;52211;50.154;8.682;2023-06-04T08:26:15;2.10;;;1.27;;
65567;SDS011;52211;50.154;8.682;2023-06-04T08:28:41;2.20;;;1.40;;
65567;SDS011;52211;50.154;8.682;2023-06-04T08:31:11;3.97;;;1.33;;
65567;SDS011;52211;50.154;8.682;2023-06-04T08:33:45;3.00;;;2.70;;
65567;SDS011;52211;50.154;8.682;2023-06-04T08:36:17;1.77;;;1.67;;
65567;SDS011;52211;50.154;8.682;2023-06-04T08:38:44;2.43;;;1.30;;
65567;SDS011;52211;50.154;8.682;2023-06-04T08:41:24;1.20;;;1.10;;
65567;SDS011;52211;50.154;8.682;2023-06-04T08:43:56;1.40;;;1.30;;
65567;SDS011;52211;50.154;8.682;2023-06-04T08:46:30;2.60;;;1.13;;
65567;SDS011;52211;50.154;8.682;2023-06-04T08:49:08;1.30;;;1.20;;
65567;SDS011;52211;50.154;8.682;2023-06-04T08:51:39;1.27;;;1.10;;
65567;SDS011;52211;50.154;8.682;2023-06-04T08:54:08;1.47;;;1.10;;
65567;SDS011;52211;50.154;8.682;2023-06-04T08:56:43;1.23;;;1.13;;
65567;SDS011;52211;50.154;8.682;2023-06-04T08:59:15;1.37;;;1.27;;
65567;SDS011;52211;50.154;8.682;2023-06-04T09:01:43;1.33;;;1.20;;
65567;SDS011;52211;50.154;8.682;2023-06-04T09:04:14;0.80;;;0.80;;
65567;SDS011;52211;50.154;8.682;2023-06-04T09:06:41;1.83;;;1.20;;
65567;SDS011;52211;50.154;8.682;2023-06-04T09:09:12;1.43;;;1.03;;
65567;SDS011;52211;50.154;8.682;2023-06-04T09:14:19;1.33;;;1.10;;
65567;SDS011;52211;50.154;8.682;2023-06-04T09:16:50;1.20;;;1.10;;
65567;SDS011;52211;50.154;8.682;2023-06-04T09:19:19;1.00;;;1.00;;
65567;SDS011;52211;50.154;8.682;2023-06-04T09:21:51;0.93;;;0.80;;
65567;SDS011;52211;50.154;8.682;2023-06-04T09:24:33;2.33;;;1.00;;
65567;SDS011;52211;50.154;8.682;2023-06-04T09:27:17;0.80;;;0.80;;
65567;SDS011;52211;50.154;8.682;2023-06-04T09:29:55;1.17;;;1.07;;
65567;SDS011;52211;50.154;8.682;2023-06-04T09:32:27;1.10;;;1.10;;
65567;SDS011;52211;50.154;8.682;2023-06-04T09:35:08;1.30;;;1.10;;
65567;SDS011;52211;50.154;8.682;2023-06-04T09:37:42;2.83;;;1.30;;
65567;SDS011;52211;50.154;8.682;2023-06-04T09:40:20;1.00;;;1.00;;
65567;SDS011;52211;50.154;8.682;2023-06-04T09:42:50;1.33;;;1.23;;
65567;SDS011;52211;50.154;8.682;2023-06-04T09:45:28;1.27;;;1.00;;
65567;SDS011;52211;50.154;8.682;2023-06-04T09:48:02;1.17;;;0.97;;
65567;SDS011;52211;50.154;8.682;2023-06-04T09:50:37;0.80;;;0.80;;
65567;SDS011;52211;50.154;8.682;2023-06-04T09:55:58;2.83;;;2.03;;
65567;SDS011;52211;50.154;8.682;2023-06-04T09:58:30;3.47;;;1.60;;
65567;SDS011;52211;50.154;8.682;2023-06-04T10:01:04;2.03;;;1.27;;
65567;SDS011;52211;50.154;8.682;2023-06-04T10:03:33;1.30;;;1.30;;
65567;SDS011;52211;50.154;8.682;2023-06-04T10:06:03;2.13;;;1.30;;
65567;SDS011;52211;50.154;8.682;2023-06-04T10:08:33;1.13;;;1.13;;
65567;SDS011;52211;50.154;8.682;2023-06-04T10:11:07;0.80;;;0.80;;
65567;SDS011;52211;50.154;8.682;2023-06-04T10:13:44;1.33;;;1.23;;
65567;SDS011;52211;50.154;8.682;2023-06-04T10:16:18;1.20;;;1.10;;
65567;SDS011;52211;50.154;8.682;2023-06-04T10:19:03;1.50;;;1.30;;
65567;SDS011;52211;50.154;8.682;2023-06-04T10:21:42;1.53;;;1.10;;
65567;SDS011;52211;50.154;8.682;2023-06-04T10:24:09;1.43;;;0.97;;
65567;SDS011;52211;50.154;8.682;2023-06-04T10:26:40;1.07;;;1.00;;
65567;SDS011;52211;50.154;8.682;2023-06-04T10:29:16;1.20;;;0.93;;
65567;SDS011;52211;50.154;8.682;2023-06-04T10:31:47;1.83;;;0.90;;
65567;SDS011;52211;50.154;8.682;2023-06-04T10:34:14;0.90;;;0.90;;
65567;SDS011;52211;50.154;8.682;2023-06-04T10:36:44;1.13;;;1.03;;
65567;SDS011;52211;50.154;8.682;2023-06-04T10:39:12;1.47;;;1.30;;
65567;SDS011;52211;50.154;8.682;2023-06-04T10:41:59;3.73;;;0.90;;
65567;SDS011;52211;50.154;8.682;2023-06-04T10:44:46;2.60;;;1.10;;
65567;SDS011;52211;50.154;8.682;2023-06-04T10:47:24;1.43;;;1.07;;
65567;SDS011;52211;50.154;8.682;2023-06-04T10:50:06;1.83;;;1.30;;
65567;SDS011;52211;50.154;8.682;2023-06-04T10:52:59;2.03;;;1.03;;
65567;SDS011;52211;50.154;8.682;2023-06-04T10:55:31;1.47;;;1.30;;
65567;SDS011;52211;50.154;8.682;2023-06-04T10:58:01;2.63;;;1.03;;
65567;SDS011;52211;50.154;8.682;2023-06-04T11:00:38;1.03;;;0.97;;
65567;SDS011;52211;50.154;8.682;2023-06-04T11:03:07;1.10;;;1.00;;
65567;SDS011;52211;50.154;8.682;2023-06-04T11:05:37;1.23;;;1.13;;
65567;SDS011;52211;50.154;8.682;2023-06-04T11:08:11;0.90;;;0.90;;
65567;SDS011;52211;50.154;8.682;2023-06-04T11:10:42;0.97;;;0.90;;
65567;SDS011;52211;50.154;8.682;2023-06-04T11:13:12;1.60;;;1.40;;
65567;SDS011;52211;50.154;8.682;2023-06-04T11:15:43;1.37;;;1.27;;
65567;SDS011;52211;50.154;8.682;2023-06-04T11:18:17;1.00;;;1.00;;
65567;SDS011;52211;50.154;8.682;2023-06-04T11:20:59;1.30;;;1.20;;
65567;SDS011;52211;50.154;8.682;2023-06-04T11:23:28;2.20;;;1.30;;
65567;SDS011;52211;50.154;8.682;2023-06-04T11:25:55;1.40;;;1.30;;
65567;SDS011;52211;50.154;8.682;2023-06-04T11:28:24;1.53;;;1.10;;
65567;SDS011;52211;50.154;8.682;2023-06-04T11:30:58;1.13;;;1.00;;
65567;SDS011;52211;50.154;8.682;2023-06-04T11:33:47;1.27;;;1.17;;
65567;SDS011;52211;50.154;8.682;2023-06-04T11:36:26;1.20;;;1.13;;
65567;SDS011;52211;50.154;8.682;2023-06-04T11:38:59;2.10;;;1.90;;
65567;SDS011;52211;50.154;8.682;2023-06-04T11:41:34;1.63;;;1.53;;
65567;SDS011;52211;50.154;8.682;2023-06-04T11:44:05;1.50;;;1.40;;
65567;SDS011;52211;50.154;8.682;2023-06-04T11:46:42;1.20;;;1.10;;
65567;SDS011;52211;50.154;8.682;2023-06-04T11:49:15;1.27;;;0.97;;
65567;SDS011;52211;50.154;8.682;2023-06-04T11:51:51;1.23;;;1.07;;
65567;SDS011;52211;50.154;8.682;2023-06-04T11:54:21;0.85;;;0.85;;
65567;SDS011;52211;50.154;8.682;2023-06-04T11:56:53;1.17;;;1.07;;
65567;SDS011;52211;50.154;8.682;2023-06-04T11:59:20;1.25;;;1.17;;
65567;SDS011;52211;50.154;8.682;2023-06-04T12:01:50;0.98;;;0.95;;
65567;SDS011;52211;50.154;8.682;2023-06-04T12:04:22;1.00;;;1.00;;
65567;SDS011;52211;50.154;8.682;2023-06-04T12:06:54;1.10;;;1.00;;
65567;SDS011;52211;50.154;8.682;2023-06-04T12:09:33;1.20;;;0.90;;
65567;SDS011;52211;50.154;8.682;2023-06-04T12:12:06;0.85;;;0.85;;
65567;SDS011;52211;50.154;8.682;2023-06-04T12:14:36;1.42;;;1.33;;
65567;SDS011;52211;50.154;8.682;2023-06-04T12:17:06;1.75;;;1.10;;
65567;SDS011;52211;50.154;8.682;2023-06-04T12:19:48;1.38;;;1.27;;
65567;SDS011;52211;50.154;8.682;2023-06-04T12:22:20;1.20;;;1.13;;
65567;SDS011;52211;50.154;8.682;2023-06-04T12:24:52;1.38;;;1.10;;
65567;SDS011;52211;50.154;8.682;2023-06-04T12:27:29;1.08;;;1.08;;
65567;SDS011;52211;50.154;8.682;2023-06-04T12:30:00;1.05;;;0.95;;
65567;SDS011;52211;50.154;8.682;2023-06-04T12:32:34;1.40;;;1.30;;
65567;SDS011;52211;50.154;8.682;2023-06-04T12:35:02;3.10;;;1.17;;
65567;SDS011;52211;50.154;8.682;2023-06-04T12:37:29;0.85;;;0.85;;
65567;SDS011;52211;50.154;8.682;2023-06-04T12:39:56;1.98;;;1.10;;
65567;SDS011;52211;50.154;8.682;2023-06-04T12:42:23;0.90;;;0.90;;
65567;SDS011;52211;50.154;8.682;2023-06-04T12:44:52;1.00;;;1.00;;
65567;SDS011;52211;50.154;8.682;2023-06-04T12:47:22;0.88;;;0.88;;
65567;SDS011;52211;50.154;8.682;2023-06-04T12:49:49;0.93;;;0.93;;
65567;SDS011;52211;50.154;8.682;2023-06-04T12:52:20;0.80;;;0.80;;
65567;SDS011;52211;50.154;8.682;2023-06-04T12:54:47;0.82;;;0.80;;
65567;SDS011;52211;50.154;8.682;2023-06-04T12:57:16;1.40;;;1.30;;
65567;SDS011;52211;50.154;8.682;2023-06-04T12:59:43;1.27;;;1.00;;
65567;SDS011;52211;50.154;8.682;2023-06-04T13:02:17;2.78;;;1.30;;
65567;SDS011;52211;50.154;8.682;2023-06-04T13:04:46;1.35;;;1.25;;
65567;SDS011;52211;50.154;8.682;2023-06-04T13:07:19;2.78;;;1.38;;
65567;SDS011;52211;50.154;8.682;2023-06-04T13:09:48;1.73;;;1.50;;
65567;SDS011;52211;50.154;8.682;2023-06-04T13:12:15;1.83;;;1.30;;
65567;SDS011;52211;50.154;8.682;2023-06-04T13:14:46;1.40;;;0.90;;
65567;SDS011;52211;50.154;8.682;2023-06-04T13:17:18;1.30;;;1.17;;
65567;SDS011;52211;50.154;8.682;2023-06-04T13:19:48;3.25;;;1.10;;
65567;SDS011;52211;50.154;8.682;2023-06-04T13:22:16;1.30;;;1.20;;
65567;SDS011;52211;50.154;8.682;2023-06-04T13:24:45;1.67;;;1.40;;
65567;SDS011;52211;50.154;8.682;2023-06-04T13:27:14;1.55;;;1.20;;
65567;SDS011;52211;50.154;8.682;2023-06-04T13:29:41;1.48;;;1.20;;
65567;SDS011;52211;50.154;8.682;2023-06-04T13:32:13;1.15;;;1.10;;
65567;SDS011;52211;50.154;8.682;2023-06-04T13:34:43;2.47;;;1.15;;
65567;SDS011;52211;50.154;8.682;2023-06-04T13:37:12;2.15;;;0.90;;
65567;SDS011;52211;50.154;8.682;2023-06-04T13:39:42;1.40;;;1.27;;
65567;SDS011;52211;50.154;8.682;2023-06-04T13:42:09;1.02;;;1.02;;
65567;SDS011;52211;50.154;8.682;2023-06-04T13:44:38;1.42;;;0.85;;
65567;SDS011;52211;50.154;8.682;2023-06-04T13:47:05;1.15;;;1.10;;
65567;SDS011;52211;50.154;8.682;2023-06-04T13:49:33;1.10;;;1.02;;
65567;SDS011;52211;50.154;8.682;2023-06-04T13:52:00;4.35;;;1.17;;
65567;SDS011;52211;50.154;8.682;2023-06-04T13:54:27;1.10;;;1.10;;
65567;SDS011;52211;50.154;8.682;2023-06-04T13:56:57;1.02;;;0.98;;
65567;SDS011;52211;50.154;8.682;2023-06-04T13:59:30;1.15;;;1.15;;
65567;SDS011;52211;50.154;8.682;2023-06-04T14:01:57;2.53;;;1.38;;
65567;SDS011;52211;50.154;8.682;2023-06-04T14:04:26;0.80;;;0.80;;
65567;SDS011;52211;50.154;8.682;2023-06-04T14:06:55;0.80;;;0.80;;
65567;SDS011;52211;50.154;8.682;2023-06-04T14:09:23;1.00;;;1.00;;
65567;SDS011;52211;50.154;8.682;2023-06-04T14:11:53;1.25;;;1.15;;
65567;SDS011;52211;50.154;8.682;2023-06-04T14:14:23;1.27;;;1.17;;
65567;SDS011;52211;50.154;8.682;2023-06-04T14:16:53;1.40;;;1.30;;
65567;SDS011;52211;50.154;8.682;2023-06-04T14:19:23;3.15;;;1.20;;
65567;SDS011;52211;50.154;8.682;2023-06-04T14:21:51;1.15;;;1.05;;
65567;SDS011;52211;50.154;8.682;2023-06-04T14:24:20;1.20;;;1.10;;
65567;SDS011;52211;50.154;8.682;2023-06-04T14:26:49;1.33;;;1.23;;
65567;SDS011;52211;50.154;8.682;2023-06-04T14:29:21;1.38;;;1.27;;
65567;SDS011;52211;50.154;8.682;2023-06-04T14:31:50;1.58;;;1.33;;
65567;SDS011;52211;50.154;8.682;2023-06-04T14:34:17;1.42;;;1.33;;
65567;SDS011;52211;50.154;8.682;2023-06-04T14:36:45;1.50;;;1.40;;
65567;SDS011;52211;50.154;8.682;2023-06-04T14:39:15;1.52;;;1.42;;
65567;SDS011;52211;50.154;8.682;2023-06-04T14:41:44;1.33;;;1.30;;
65567;SDS011;52211;50.154;8.682;2023-06-04T14:44:13;1.13;;;1.13;;
65567;SDS011;52211;50.154;8.682;2023-06-04T14:46:40;2.63;;;1.50;;
65567;SDS011;52211;50.154;8.682;2023-06-04T14:49:10;1.60;;;1.50;;
65567;SDS011;52211;50.154;8.682;2023-06-04T14:51:36;1.65;;;1.40;;
65567;SDS011;52211;50.154;8.682;2023-06-04T14:54:06;3.10;;;1.52;;
65567;SDS011;52211;50.154;8.682;2023-06-04T14:56:37;2.13;;;1.83;;
65567;SDS011;52211;50.154;8.682;2023-06-04T14:59:04;1.48;;;1.38;;
65567;SDS011;52211;50.154;8.682;2023-06-04T15:01:39;1.48;;;1.38;;
65567;SDS011;52211;50.154;8.682;2023-06-04T15:04:15;1.50;;;1.40;;
65567;SDS011;52211;50.154;8.682;2023-06-04T15:06:44;1.45;;;1.33;;
65567;SDS011;52211;50.154;8.682;2023-06-04T15:09:13;1.65;;;1.52;;
65567;SDS011;52211;50.154;8.682;2023-06-04T15:11:43;1.67;;;1.58;;
65567;SDS011;52211;50.154;8.682;2023-06-04T15:14:11;1.88;;;1.77;;
65567;SDS011;52211;50.154;8.682;2023-06-04T15:16:45;1.55;;;1.45;;
65567;SDS011;52211;50.154;8.682;2023-06-04T15:19:12;1.83;;;1.70;;
65567;SDS011;52211;50.154;8.682;2023-06-04T15:21:41;1.90;;;1.80;;